Current Conditions
Rain
Conditions



Pressure
1011.85 (hPa) - 29.88 (inHG)
Visibility

3.0 (km) - 1.9 (miles)
Temperature
11  °C
Temperature
11  °C
Dewpoint
100  %
 Humidity
Wind Speed
21  km/h
11  kts
13  mph
5.8  m/s
Wind Direction
N
45°
E
90°
135°
S
180°
225°
W
270°
315°
 210°

South South
West
Airport Data
EDGS
Siegerland Airport
Metar :EDGS 290820Z 21011KT 170V250 3000 RA BR BKN004 OVC011 11/11 Q1012
Wed 29th May 10:20 am
Raw Metar Info
Raw METAR is the most common format in the world for the transmission of observational weather data. It is highly standardized through the International Civil Aviation Organization (ICAO), which allows it to be understood throughout most of the world.
API Info
Data Provided by
https://www.checkwx.com/weather/EDGS

Aviation Weather providing METAR, TAF, AIRMET, SIGMET and OUTLOOK Weather Reports
© Info
CSS/SVG/PHP scripts were developed by weather34 for use in the weather34 template © 2015-2024

Guide Info provided by Metar-Wikipedia